Weather forecast for Chervonyi Kut (Червоный Кут)

Ukraine, 146 m
N47.393, E30.455


Sounding

Red line — air temperature ˚C.
Blue line — thermal bubble temperature ˚C.
Green line — dew point temperature ˚C.
Wind speed is in meters per second.

Table forecast

GFS 0.25˚ model

temp. wind gust humid. clouds prec. press. hpbl
Thu26 00:00 17 207.0 ssw 5 12 67 79 0.0 1012 288
03:00 17 215.0 sw 6 13 70 58 0.0 1012 357
06:00 15 224.0 sw 5 10 81 59 0.0 1012 252
09:00 20 247.0 wsw 4 5 64 73 0.0 1012 316
12:00 25 271.0 w 3 3 44 41 0.0 1012 1320
15:00 27 256.0 wsw 2 3 36 27 0.0 1011 2322
18:00 25 216.0 sw 1 2 46 89 0.0 1011 24
21:00 21 182.0 s 6 11 57 88 0.0 1011 293
 
Fri27 00:00 17 206.0 ssw 3 9 64 42 0.3 1011 256
03:00 15 231.0 sw 2 3 74 66 1.7 1011 71
06:00 15 313.0 nw 1 1 85 100 3.2 1012 23
09:00 14 12.0 nne 5 8 90 100 4.9 1013 378
12:00 15 348.0 nnw 7 9 77 97 0.1 1015 875
15:00 20 344.0 nnw 6 8 53 61 0.1 1016 1441
18:00 19 337.0 nnw 6 8 51 0 0.0 1016 1697
21:00 15 346.0 nnw 3 5 65 0 0.0 1018 96
 
Sat28 00:00 12 358.0 n 2 3 68 0 0.0 1020 41
03:00 11 358.0 n 2 3 72 40 0.0 1021 27
06:00 10 15.0 nne 2 2 73 43 0.0 1022 22
09:00 15 58.0 ene 2 2 54 27 0.0 1023 345
12:00 20 136.0 se 1 1 36 8 0.0 1024 1360
15:00 22 164.0 sse 1 1 31 4 0.0 1022 1758
18:00 22 148.0 sse 1 2 32 0 0.0 1021 1609
21:00 16 169.0 s 3 4 50 1 0.0 1022 54
 
Sun29 00:00 14 192.0 ssw 2 2 57 0 0.0 1023 23
03:00 13 163.0 sse 2 3 55 0 0.0 1024 24
06:00 12 148.0 sse 2 2 60 0 0.0 1024 22
09:00 17 152.0 sse 3 5 49 0 0.0 1024 406
12:00 22 147.0 sse 5 6 36 0 0.0 1024 1326
15:00 23 157.0 sse 5 6 33 0 0.0 1023 1492
18:00 22 176.0 s 5 6 40 0 0.0 1021 1182
21:00 16 187.0 s 3 4 55 0 0.0 1022 69
 
Mon30 00:00 14 171.0 s 3 7 60 0 0.0 1022 161
03:00 12 153.0 sse 3 3 63 0 0.0 1021 63
06:00 11 124.0 se 2 3 65 0 0.0 1021 25
09:00 16 123.0 ese 5 7 56 0 0.0 1020 466
12:00 22 135.0 se 6 7 41 0 0.0 1019 1091
15:00 24 143.0 se 5 7 35 0 0.0 1018 1380
18:00 24 142.0 se 4 6 39 0 0.0 1017 1532
21:00 17 154.0 sse 3 4 56 0 0.0 1017 55
 

0.014 s